Airfield :
LOGIN :

Register | Disclaimer

   EN    FR    IT 

 










Legend :    VFR   Marginal VFR   IFR   Intensive IFR   Very Intensive IFR
Visi :
Ceiling :
>= 8 km
>= 3000ft
5 to 8 km
1000 to 3000 ft
1500m to 5 km
500 to 1000 ft
800 to 1500m
200 to 500 ft
< 800m
< 200 ft
Symbols :   Thunderstorms  Fog  Heavy snow  Heavy precipitations  Wind > 20 kt
SIGMETs :     Misc.  Thunderstorms  Icing  Turbulence  Mountain Waves  Volcanic Ashes






- Airport Elevation : 236 ft
- IATA code : MMX


ESMS - Malmö Sturup

CURRENT METAR :
  • 241250Z 27012KT 9999 OVC006 06/05 Q1015 R17/29//95

EXPIRED METARs :
  • 241220Z 27011KT 9999 OVC006 06/05 Q1015 R17/29//95
  • 241150Z 26012KT 8000 OVC004 06/05 Q1016 R17/290195
  • 241120Z 24012KT 4800 BR OVC003 05/05 Q1015 R17/290195
  • 241050Z 26010KT 3600 BR OVC003 05/05 Q1016 R17/290195
  • 241020Z 26010KT 3900 BR OVC003 05/05 Q1016 REDZ R17/290195

TAF TAF ESMS
Valid from the 24 at 12:00 until the 25 at 12:00 UTC


241113Z 2412/2512 26008KT 2000 -RADZ BR BKN003
TEMPO 2412/2421 5000 BKN005
BECMG 2421/2423 5000 NSW BKN020



MET'MAP, your aeronautical weather chart ! - Copyright ORBIFLY December 2007 - Disclaimer

ORBIFLY MET'MAP TEAM :

Programming & Development : Alexandra Zaïnal
Concept & original design : Baudouin d'Aumeries
Assistance for programming : Marc-Olivier Méhu
Technical & hardware support : Manuel Goepfert

Contact : metmap@orbifly.com




SOURCES & CREDITS :

   NOAA